Time;durP1;ratioP1;P1;durP2;ratioP2;P2;SDS_P1;SDS_P2;PMS_P1;PMS_P2;Temp;Humidity;BMP_temperature;BMP_pressure;BME280_temperature;BME280_humidity;BME280_pressure;Samples;Min_cycle;Max_cycle;Signal;HPM_P1;HPM_P2
2022/10/25 00:01:31;;;;;;;10.70;1.45;;;12.50;99.90;;;;;;5076534;28;20021;-71
2022/10/25 00:03:58;;;;;;;2.58;1.05;;;12.50;99.90;;;;;;5077068;28;20021;-71
2022/10/25 00:06:26;;;;;;;8.70;1.63;;;12.50;99.90;;;;;;5076520;28;20020;-71
2022/10/25 00:08:53;;;;;;;10.70;1.10;;;12.50;99.90;;;;;;5075846;28;20077;-71
2022/10/25 00:11:26;;;;;;;4.35;1.55;;;12.40;99.90;;;;;;5075615;28;20324;-71
2022/10/25 00:13:56;;;;;;;8.00;1.40;;;12.40;99.90;;;;;;5075431;28;20051;-71
2022/10/25 00:16:26;;;;;;;16.67;2.78;;;12.40;99.90;;;;;;5076943;28;20017;-70
2022/10/25 00:18:54;;;;;;;6.43;1.67;;;12.40;99.90;;;;;;5075865;28;20035;-71
2022/10/25 00:21:22;;;;;;;6.30;1.60;;;12.40;99.90;;;;;;5076619;28;20432;-71
2022/10/25 00:23:50;;;;;;;5.43;2.03;;;12.40;99.90;;;;;;5058587;28;20029;-71
2022/10/25 00:26:18;;;;;;;5.22;1.60;;;12.40;99.90;;;;;;5075124;28;20020;-71
2022/10/25 00:28:45;;;;;;;9.63;2.22;;;12.40;99.90;;;;;;5075634;28;20048;-70
2022/10/25 00:31:15;;;;;;;12.25;2.05;;;12.40;99.90;;;;;;5076785;28;20078;-71
2022/10/25 00:33:44;;;;;;;4.28;1.30;;;12.40;99.90;;;;;;5076251;28;20051;-71
2022/10/25 00:36:22;;;;;;;7.13;1.23;;;12.50;99.90;;;;;;5078044;28;20021;-71
2022/10/25 00:38:51;;;;;;;8.05;1.95;;;12.40;99.90;;;;;;5080319;28;20417;-71
2022/10/25 00:41:21;;;;;;;8.65;1.30;;;12.40;99.90;;;;;;5080082;28;20036;-71
2022/10/25 00:43:51;;;;;;;3.53;1.25;;;12.50;99.90;;;;;;5079305;28;20032;-71
2022/10/25 00:46:27;;;;;;;8.52;1.70;;;12.50;99.90;;;;;;5080458;28;20020;-71
2022/10/25 00:48:58;;;;;;;7.70;1.40;;;12.50;99.90;;;;;;5080648;28;20020;-71
2022/10/25 00:51:40;;;;;;;9.93;1.25;;;12.50;99.90;;;;;;5080411;28;20017;-70
2022/10/25 00:54:15;;;;;;;7.03;2.05;;;12.50;99.90;;;;;;5079927;28;20103;-71
2022/10/25 00:56:44;;;;;;;6.80;1.30;;;12.50;99.90;;;;;;5079757;28;20028;-71
2022/10/25 00:59:18;;;;;;;4.90;1.27;;;12.60;99.90;;;;;;5079858;28;20025;-71
2022/10/25 01:01:46;;;;;;;11.57;2.53;;;12.60;99.90;;;;;;5080198;28;20035;-71
2022/10/25 01:04:17;;;;;;;3.13;1.00;;;12.60;99.90;;;;;;5079705;28;20039;-71
2022/10/25 01:06:50;;;;;;;9.13;1.88;;;12.60;99.90;;;;;;5079431;28;20120;-71
2022/10/25 01:09:28;;;;;;;5.70;1.10;;;12.60;99.90;;;;;;5079715;28;20100;-71
2022/10/25 01:11:56;;;;;;;6.80;1.33;;;12.70;99.90;;;;;;5079516;28;20029;-71
2022/10/25 01:14:25;;;;;;;5.38;1.23;;;12.70;99.90;;;;;;5079384;28;20016;-71
2022/10/25 01:17:11;;;;;;;6.15;1.38;;;12.70;99.90;;;;;;5079325;28;20025;-71
2022/10/25 01:20:15;;;;;;;7.68;1.35;;;12.70;99.90;;;;;;5079869;28;20048;-71
2022/10/25 01:22:57;;;;;;;5.28;1.58;;;12.70;99.90;;;;;;5079874;28;20030;-71
2022/10/25 01:25:55;;;;;;;3.83;1.00;;;12.70;99.90;;;;;;5079276;28;20078;-71
2022/10/25 01:28:53;;;;;;;9.23;1.42;;;12.70;99.90;;;;;;5079499;28;20035;-71
2022/10/25 01:31:48;;;;;;;6.63;1.73;;;12.70;99.90;;;;;;5079686;28;20017;-70
2022/10/25 01:34:26;;;;;;;4.85;1.33;;;12.80;99.90;;;;;;5079021;28;20112;-71
2022/10/25 01:37:32;;;;;;;5.18;1.10;;;12.80;99.90;;;;;;5079067;28;20028;-71
2022/10/25 01:40:28;;;;;;;8.00;1.52;;;12.90;99.90;;;;;;5066044;28;20035;-71
2022/10/25 01:43:09;;;;;;;7.47;1.95;;;12.90;99.90;;;;;;5079319;28;20301;-70
2022/10/25 01:45:46;;;;;;;10.40;1.70;;;12.90;99.90;;;;;;5078865;28;20059;-70
2022/10/25 01:48:22;;;;;;;14.50;1.67;;;12.90;99.90;;;;;;5078445;28;20311;-71
2022/10/25 01:50:50;;;;;;;7.88;1.63;;;12.90;99.90;;;;;;5071494;28;20103;-71
2022/10/25 01:53:17;;;;;;;8.85;1.80;;;13.00;99.90;;;;;;5077391;28;20390;-71
2022/10/25 01:56:00;;;;;;;6.78;1.52;;;13.00;99.90;;;;;;5079544;28;20090;-71
2022/10/25 01:58:40;;;;;;;11.00;2.95;;;13.00;99.90;;;;;;5060985;28;20434;-71
2022/10/25 02:01:44;;;;;;;13.68;2.53;;;13.10;99.90;;;;;;5079151;28;20024;-71
2022/10/25 02:04:30;;;;;;;10.80;1.77;;;13.20;99.90;;;;;;5079144;28;20070;-71
2022/10/25 02:07:11;;;;;;;8.07;2.63;;;13.20;99.90;;;;;;5079138;28;20027;-71
2022/10/25 02:09:45;;;;;;;9.73;1.90;;;13.20;99.90;;;;;;5078454;28;20070;-71
2022/10/25 02:12:23;;;;;;;6.90;1.90;;;13.20;99.90;;;;;;5079002;28;20027;-71
2022/10/25 02:15:40;;;;;;;7.90;1.75;;;13.20;99.90;;;;;;5078509;28;20016;-70
2022/10/25 02:18:14;;;;;;;11.43;2.08;;;13.20;99.90;;;;;;5065342;28;20040;-71
2022/10/25 02:20:44;;;;;;;6.25;1.52;;;13.20;99.90;;;;;;5060492;28;20477;-71
2022/10/25 02:23:14;;;;;;;7.68;1.75;;;13.20;99.90;;;;;;5078772;28;20021;-71
2022/10/25 02:25:42;;;;;;;7.95;1.80;;;13.20;99.90;;;;;;5078147;28;20443;-70
2022/10/25 02:28:14;;;;;;;8.80;2.25;;;13.20;99.90;;;;;;5078692;28;20036;-71
2022/10/25 02:30:43;;;;;;;5.63;2.28;;;13.20;99.90;;;;;;5077954;28;20091;-71
2022/10/25 02:33:11;;;;;;;7.72;2.40;;;13.30;99.90;;;;;;5078005;28;20095;-71
2022/10/25 02:35:39;;;;;;;6.40;1.98;;;13.30;99.90;;;;;;5060134;28;20298;-71
2022/10/25 02:38:06;;;;;;;5.32;1.80;;;13.30;99.90;;;;;;5076936;28;20039;-71
2022/10/25 02:40:34;;;;;;;19.35;3.17;;;13.30;99.90;;;;;;5078385;28;20104;-71
2022/10/25 02:43:01;;;;;;;6.82;2.55;;;13.30;99.90;;;;;;5060048;28;20025;-71
2022/10/25 02:45:29;;;;;;;10.55;2.38;;;13.40;99.90;;;;;;5077723;28;20017;-71
2022/10/25 02:47:56;;;;;;;6.10;1.70;;;13.40;99.90;;;;;;5078312;28;20028;-71
2022/10/25 02:50:23;;;;;;;9.18;1.83;;;13.40;99.90;;;;;;5078196;28;20020;-71
2022/10/25 02:52:50;;;;;;;7.93;1.50;;;13.40;99.90;;;;;;5078151;28;20020;-70
2022/10/25 02:55:17;;;;;;;7.57;2.47;;;13.40;99.90;;;;;;5077083;28;20091;-70
2022/10/25 02:57:44;;;;;;;7.28;1.67;;;13.40;99.90;;;;;;5077668;28;20039;-71
2022/10/25 03:00:12;;;;;;;5.55;1.60;;;13.50;99.90;;;;;;5077364;28;20029;-71
2022/10/25 03:02:40;;;;;;;10.93;2.58;;;13.50;99.90;;;;;;5077416;28;20077;-70
2022/10/25 03:05:07;;;;;;;12.25;1.60;;;13.50;99.90;;;;;;5077591;28;20027;-71
2022/10/25 03:07:35;;;;;;;13.63;2.35;;;13.50;99.90;;;;;;5077938;28;20317;-71
2022/10/25 03:10:03;;;;;;;7.00;1.90;;;13.40;99.90;;;;;;5077223;28;20024;-70
2022/10/25 03:12:30;;;;;;;11.50;2.60;;;13.40;99.90;;;;;;5077213;28;20420;-71
2022/10/25 03:14:57;;;;;;;8.00;1.65;;;13.40;99.90;;;;;;5077600;28;20028;-70
2022/10/25 03:17:25;;;;;;;9.93;1.77;;;13.50;99.90;;;;;;5077289;28;20025;-71
2022/10/25 03:19:52;;;;;;;9.98;1.60;;;13.50;99.90;;;;;;5077115;28;20024;-71
2022/10/25 03:22:20;;;;;;;6.78;1.50;;;13.50;99.90;;;;;;5077073;28;20024;-71
2022/10/25 03:24:47;;;;;;;6.57;1.38;;;13.50;99.90;;;;;;5077538;28;20032;-71
2022/10/25 03:27:16;;;;;;;11.02;2.08;;;13.50;99.90;;;;;;5077323;28;20352;-71
2022/10/25 03:29:44;;;;;;;14.52;2.63;;;13.50;99.90;;;;;;5076786;28;20013;-71
2022/10/25 03:32:12;;;;;;;9.15;1.77;;;13.60;99.90;;;;;;5077220;28;20020;-70
2022/10/25 03:34:39;;;;;;;10.68;1.83;;;13.50;99.90;;;;;;5077444;28;20043;-71
2022/10/25 03:37:07;;;;;;;4.82;1.50;;;13.50;99.90;;;;;;5077524;28;20028;-71
2022/10/25 03:39:34;;;;;;;8.52;1.65;;;13.50;99.90;;;;;;5076794;28;20025;-70
2022/10/25 03:42:01;;;;;;;7.18;2.28;;;13.50;99.90;;;;;;5059008;28;20031;-71
2022/10/25 03:44:31;;;;;;;8.48;2.20;;;13.40;99.90;;;;;;5077220;28;20066;-70
2022/10/25 03:47:01;;;;;;;5.57;1.85;;;13.40;99.90;;;;;;5058840;28;20143;-70
2022/10/25 03:49:28;;;;;;;6.30;1.80;;;13.40;99.90;;;;;;5076626;28;20099;-70
2022/10/25 03:51:55;;;;;;;6.55;1.42;;;13.40;99.90;;;;;;5077162;28;20028;-71
2022/10/25 03:54:23;;;;;;;5.38;1.55;;;13.40;99.90;;;;;;5076431;28;20036;-70
2022/10/25 03:56:50;;;;;;;9.40;2.88;;;13.40;99.90;;;;;;5076819;28;20027;-71
2022/10/25 03:59:18;;;;;;;6.78;1.85;;;13.50;99.90;;;;;;5076671;28;20174;-70
2022/10/25 04:01:45;;;;;;;7.43;1.55;;;13.50;99.90;;;;;;5075783;28;20025;-71
2022/10/25 04:04:12;;;;;;;6.00;1.17;;;13.50;99.90;;;;;;5076559;28;20016;-70
2022/10/25 04:06:40;;;;;;;9.48;1.58;;;13.50;99.90;;;;;;5076962;28;20104;-70
2022/10/25 04:09:07;;;;;;;8.98;2.17;;;13.60;99.90;;;;;;5058802;28;20111;-71
2022/10/25 04:11:34;;;;;;;6.57;1.88;;;13.50;99.90;;;;;;5076008;28;20412;-71
2022/10/25 04:14:02;;;;;;;12.00;2.33;;;13.60;99.90;;;;;;5076372;28;20024;-70
2022/10/25 04:16:29;;;;;;;10.50;2.20;;;13.50;99.90;;;;;;5058596;28;20020;-71
2022/10/25 04:18:57;;;;;;;7.35;1.70;;;13.60;99.90;;;;;;5076868;28;20103;-71
2022/10/25 04:21:25;;;;;;;10.88;1.92;;;13.60;99.90;;;;;;5058789;28;20063;-71
2022/10/25 04:23:52;;;;;;;7.35;1.83;;;13.50;99.90;;;;;;5076885;28;20024;-70
2022/10/25 04:26:20;;;;;;;9.18;1.92;;;13.50;99.90;;;;;;5076541;28;20021;-71
2022/10/25 04:28:53;;;;;;;8.30;1.98;;;13.50;99.90;;;;;;5058516;28;20029;-71
2022/10/25 04:31:21;;;;;;;11.85;1.92;;;13.50;99.90;;;;;;5076216;28;20099;-71
2022/10/25 04:33:54;;;;;;;11.38;1.80;;;13.50;99.90;;;;;;5058437;28;20020;-71
2022/10/25 04:36:22;;;;;;;8.73;2.65;;;13.50;99.90;;;;;;5076210;28;20024;-71
2022/10/25 04:38:51;;;;;;;3.40;1.60;;;13.50;99.90;;;;;;5076187;28;20020;-71
2022/10/25 04:41:19;;;;;;;8.75;2.28;;;13.50;99.90;;;;;;5058295;28;20325;-71
2022/10/25 04:43:48;;;;;;;8.23;1.50;;;13.50;99.90;;;;;;5076201;28;20021;-70
2022/10/25 04:46:15;;;;;;;9.65;2.03;;;13.50;99.90;;;;;;5076078;28;20028;-71
2022/10/25 04:48:42;;;;;;;10.50;1.67;;;13.40;99.90;;;;;;5074960;28;20024;-71
2022/10/25 04:51:11;;;;;;;6.30;1.48;;;13.40;99.90;;;;;;5074956;28;20424;-71
2022/10/25 04:53:38;;;;;;;9.35;2.20;;;13.40;99.90;;;;;;5075920;28;20035;-71
2022/10/25 04:56:08;;;;;;;5.45;1.75;;;13.40;99.90;;;;;;5074039;28;20033;-71
2022/10/25 04:58:36;;;;;;;8.18;2.22;;;13.40;99.90;;;;;;5075928;28;20029;-71
2022/10/25 05:01:11;;;;;;;5.38;2.15;;;13.40;99.90;;;;;;5075916;28;20055;-71
2022/10/25 05:03:39;;;;;;;8.25;2.45;;;13.40;99.90;;;;;;5076135;28;20436;-71
2022/10/25 05:06:13;;;;;;;8.23;2.08;;;13.40;99.90;;;;;;5074822;28;20044;-71
2022/10/25 05:08:46;;;;;;;11.85;1.60;;;13.40;99.90;;;;;;5058096;28;20067;-71
2022/10/25 05:11:16;;;;;;;8.23;1.92;;;13.40;99.90;;;;;;5075837;28;20013;-71
2022/10/25 05:13:44;;;;;;;9.00;2.05;;;13.50;99.90;;;;;;5057457;28;20025;-71
2022/10/25 05:16:19;;;;;;;12.00;2.20;;;13.40;99.90;;;;;;5076084;28;20115;-71
2022/10/25 05:18:47;;;;;;;;;;;13.40;99.90;;;;;;5077080;28;20099;-71
2022/10/25 05:21:16;;;;;;;9.68;2.25;;;13.40;99.90;;;;;;5075769;28;19904;-71
2022/10/25 05:23:45;;;;;;;4.07;1.58;;;13.40;99.90;;;;;;5077904;28;20105;-71
2022/10/25 05:26:20;;;;;;;9.20;3.05;;;13.30;99.90;;;;;;5061581;28;20028;-71
2022/10/25 05:28:49;;;;;;;6.60;3.60;;;13.30;99.90;;;;;;5079711;28;20371;-71
2022/10/25 05:31:25;;;;;;;9.23;2.10;;;13.30;99.90;;;;;;5079717;28;20017;-71
2022/10/25 05:33:54;;;;;;;8.77;2.45;;;13.20;99.90;;;;;;5079340;28;20025;-71
2022/10/25 05:36:21;;;;;;;9.05;2.28;;;13.20;99.90;;;;;;5079632;28;20040;-71
2022/10/25 05:38:48;;;;;;;11.57;4.05;;;13.20;99.90;;;;;;5078003;28;20056;-71
2022/10/25 05:41:18;;;;;;;8.18;2.00;;;13.10;99.90;;;;;;5078953;28;20055;-71
2022/10/25 05:43:45;;;;;;;8.25;1.88;;;13.10;99.90;;;;;;5079114;28;20042;-71
2022/10/25 05:46:17;;;;;;;8.07;1.70;;;13.10;99.90;;;;;;5079514;28;20029;-71
2022/10/25 05:48:46;;;;;;;10.95;2.40;;;13.10;99.90;;;;;;5078892;28;20113;-71
2022/10/25 05:51:20;;;;;;;7.40;1.80;;;13.10;99.90;;;;;;5079378;28;20021;-71
2022/10/25 05:53:50;;;;;;;8.80;1.80;;;13.10;99.90;;;;;;5078668;28;20116;-71
2022/10/25 05:56:18;;;;;;;7.03;2.55;;;13.20;99.90;;;;;;5078723;28;20028;-71
2022/10/25 05:58:46;;;;;;;10.13;2.00;;;13.20;99.90;;;;;;5078700;28;20055;-71
2022/10/25 06:01:18;;;;;;;14.77;1.98;;;13.20;99.90;;;;;;5078947;28;20023;-70
2022/10/25 06:03:50;;;;;;;14.52;2.20;;;13.20;99.90;;;;;;5078804;28;20038;-71
2022/10/25 06:06:18;;;;;;;6.38;3.05;;;13.20;99.90;;;;;;5078846;28;20313;-71
2022/10/25 06:08:46;;;;;;;8.52;2.33;;;13.20;99.90;;;;;;5079042;28;20020;-71
2022/10/25 06:11:18;;;;;;;6.10;2.17;;;13.20;99.90;;;;;;5078991;28;20282;-71
2022/10/25 06:13:46;;;;;;;6.40;1.80;;;13.20;99.90;;;;;;5078994;28;20408;-71
2022/10/25 06:16:16;;;;;;;10.25;2.60;;;13.20;99.90;;;;;;5078374;28;20020;-71
2022/10/25 06:18:44;;;;;;;12.05;2.47;;;13.20;99.90;;;;;;5078361;28;20024;-72
2022/10/25 06:21:13;;;;;;;10.38;3.00;;;13.20;99.90;;;;;;5078512;28;20020;-71
2022/10/25 06:23:42;;;;;;;5.93;2.15;;;13.10;99.90;;;;;;5060655;28;20032;-71
2022/10/25 06:26:11;;;;;;;8.75;1.98;;;13.10;99.90;;;;;;5078113;28;20048;-71
2022/10/25 06:28:39;;;;;;;9.48;2.30;;;13.10;99.90;;;;;;5060189;28;20025;-71
2022/10/25 06:31:10;;;;;;;9.23;2.45;;;13.10;99.90;;;;;;5078609;28;20028;-72
2022/10/25 06:33:38;;;;;;;9.10;2.53;;;13.10;99.90;;;;;;5077891;28;20298;-71
2022/10/25 06:36:12;;;;;;;8.90;3.42;;;13.10;99.90;;;;;;5060216;28;20302;-72
2022/10/25 06:38:39;;;;;;;17.48;2.78;;;13.10;99.90;;;;;;5077837;28;20028;-72
2022/10/25 06:41:11;;;;;;;9.20;3.72;;;13.10;99.90;;;;;;5077849;28;20036;-72
2022/10/25 06:43:39;;;;;;;20.08;3.45;;;13.10;99.90;;;;;;5077911;28;20024;-72
2022/10/25 06:46:37;;;;;;;10.18;3.85;;;13.20;99.90;;;;;;5078208;28;20032;-72
2022/10/25 06:49:05;;;;;;;10.60;3.63;;;13.20;99.90;;;;;;5051278;28;20040;-72
2022/10/25 06:51:36;;;;;;;10.80;4.22;;;13.20;99.90;;;;;;5077672;28;20048;-72
2022/10/25 06:54:06;;;;;;;10.85;3.83;;;13.20;99.90;;;;;;5077688;28;20122;-73
2022/10/25 06:56:35;;;;;;;11.40;4.07;;;13.30;99.90;;;;;;5078366;28;20024;-72
2022/10/25 06:59:07;;;;;;;9.68;3.33;;;13.30;99.90;;;;;;5077951;28;20021;-72
2022/10/25 07:01:37;;;;;;;11.55;3.53;;;13.30;99.90;;;;;;5059931;28;20432;-72
2022/10/25 07:04:05;;;;;;;12.05;3.47;;;13.40;99.90;;;;;;5077309;28;20059;-72
2022/10/25 07:06:36;;;;;;;7.57;2.90;;;13.40;99.90;;;;;;5077857;28;20362;-74
2022/10/25 07:09:05;;;;;;;8.20;3.20;;;13.40;99.90;;;;;;5077581;28;20309;-73
2022/10/25 07:11:36;;;;;;;12.93;3.17;;;13.40;99.90;;;;;;5077560;28;20021;-73
2022/10/25 07:14:04;;;;;;;6.88;2.45;;;13.40;99.90;;;;;;5077110;28;20016;-73
2022/10/25 07:16:31;;;;;;;14.23;3.30;;;13.50;99.90;;;;;;5059462;28;20044;-73
2022/10/25 07:19:00;;;;;;;13.48;3.22;;;13.50;99.90;;;;;;5059356;28;20020;-72
2022/10/25 07:21:29;;;;;;;8.98;2.80;;;13.50;99.90;;;;;;5059365;28;20091;-74
2022/10/25 07:23:56;;;;;;;9.02;2.88;;;13.50;99.90;;;;;;5077077;28;20024;-74
2022/10/25 07:26:26;;;;;;;8.18;2.72;;;13.50;99.90;;;;;;5075905;28;20029;-74
2022/10/25 07:28:55;;;;;;;8.35;3.90;;;13.50;99.90;;;;;;5077326;28;20436;-74
2022/10/25 07:31:28;;;;;;;9.75;3.65;;;13.50;99.90;;;;;;5077440;28;20035;-74
2022/10/25 07:33:58;;;;;;;10.07;4.43;;;13.50;99.90;;;;;;5077418;28;20025;-73
2022/10/25 07:36:26;;;;;;;7.28;3.10;;;13.60;99.90;;;;;;5076807;28;20028;-72
2022/10/25 07:38:55;;;;;;;9.48;2.95;;;13.60;99.90;;;;;;5077042;28;20035;-72
2022/10/25 07:41:22;;;;;;;6.45;3.28;;;13.70;99.90;;;;;;5077326;28;20052;-72
2022/10/25 07:43:50;;;;;;;8.70;3.67;;;13.80;99.90;;;;;;5076724;28;20028;-72
2022/10/25 07:46:17;;;;;;;7.38;3.90;;;13.80;99.90;;;;;;5076085;28;20031;-72
2022/10/25 07:48:45;;;;;;;6.03;3.85;;;13.90;99.90;;;;;;5076782;28;20029;-72
2022/10/25 07:51:16;;;;;;;14.05;3.80;;;13.90;99.90;;;;;;5077239;28;20020;-72
2022/10/25 07:53:45;;;;;;;9.73;3.30;;;14.00;99.90;;;;;;5076377;28;20123;-72
2022/10/25 07:56:14;;;;;;;13.82;3.83;;;14.10;99.90;;;;;;5076606;28;20017;-73
2022/10/25 07:58:41;;;;;;;8.95;4.07;;;14.20;99.90;;;;;;5076669;28;20107;-72
2022/10/25 08:01:10;;;;;;;13.18;3.78;;;14.30;99.90;;;;;;5076483;28;20032;-71
2022/10/25 08:03:38;;;;;;;12.75;4.20;;;14.40;99.90;;;;;;5076474;28;20021;-71
2022/10/25 08:06:07;;;;;;;9.18;3.55;;;14.40;99.90;;;;;;5076708;28;20320;-72
2022/10/25 08:08:36;;;;;;;10.98;4.28;;;14.50;99.90;;;;;;5076568;28;20028;-71
2022/10/25 08:11:06;;;;;;;11.98;4.47;;;14.50;99.90;;;;;;5076443;28;20021;-70
2022/10/25 08:13:36;;;;;;;9.07;4.20;;;14.60;99.90;;;;;;5058403;28;20036;-71
2022/10/25 08:16:04;;;;;;;9.13;4.32;;;14.60;99.90;;;;;;5076977;28;20020;-72
2022/10/25 08:18:32;;;;;;;8.55;3.95;;;14.60;99.90;;;;;;5076530;28;20025;-72
2022/10/25 08:21:04;;;;;;;8.45;3.65;;;14.50;99.90;;;;;;5058547;28;20032;-74
2022/10/25 08:23:32;;;;;;;12.15;4.20;;;14.50;99.90;;;;;;5076353;28;20111;-72
2022/10/25 08:26:00;;;;;;;8.55;3.72;;;14.40;99.90;;;;;;5076299;28;20413;-72
2022/10/25 08:28:29;;;;;;;10.75;3.67;;;14.40;99.90;;;;;;5076314;28;20024;-72
2022/10/25 08:30:57;;;;;;;11.23;4.45;;;14.40;99.90;;;;;;5076511;28;20052;-72
2022/10/25 08:33:24;;;;;;;7.65;3.58;;;14.40;99.90;;;;;;5076264;28;20482;-71
2022/10/25 08:35:51;;;;;;;9.77;3.03;;;14.40;99.90;;;;;;5076770;28;20020;-72
2022/10/25 08:38:19;;;;;;;8.75;3.50;;;14.40;99.90;;;;;;5058353;28;20028;-70
2022/10/25 08:40:56;;;;;;;9.73;3.40;;;14.40;99.90;;;;;;5058312;28;20098;-75
2022/10/25 08:43:58;;;;;;;10.05;3.30;;;14.40;99.90;;;;;;5076051;28;20057;-73
2022/10/25 08:46:36;;;;;;;7.63;3.13;;;14.40;99.90;;;;;;5058500;28;20021;-72
2022/10/25 08:49:28;;;;;;;6.35;3.15;;;14.50;99.90;;;;;;5076324;28;20413;-72
2022/10/25 08:51:57;;;;;;;10.85;3.38;;;14.40;99.90;;;;;;5076322;28;20020;-79
2022/10/25 08:54:34;;;;;;;11.95;3.50;;;14.50;99.90;;;;;;5075823;28;20321;-75
2022/10/25 08:57:22;;;;;;;9.93;3.10;;;14.50;99.90;;;;;;5077727;28;20020;-75
2022/10/25 09:00:09;;;;;;;10.23;4.82;;;14.60;99.90;;;;;;5079743;28;20024;-75
2022/10/25 09:02:45;;;;;;;6.65;3.35;;;14.70;99.90;;;;;;5080267;28;20052;-75
2022/10/25 09:05:31;;;;;;;;;;;14.80;99.90;;;;;;5080053;28;20021;-75
2022/10/25 09:08:19;;;;;;;7.93;3.65;;;14.90;99.90;;;;;;5079698;28;20338;-75
2022/10/25 09:11:03;;;;;;;8.32;3.97;;;15.00;99.90;;;;;;5062120;28;20352;-77
2022/10/25 09:13:40;;;;;;;12.00;3.65;;;15.00;99.90;;;;;;5079818;28;20358;-87
2022/10/25 09:16:11;;;;;;;9.00;4.45;;;15.00;99.90;;;;;;5079904;28;20312;-73
2022/10/25 09:18:54;;;;;;;6.57;4.15;;;15.00;99.90;;;;;;5079911;28;20020;-73
2022/10/25 09:21:28;;;;;;;12.45;3.80;;;15.10;99.90;;;;;;5079757;28;20520;-73
2022/10/25 09:24:11;;;;;;;11.70;4.15;;;15.10;99.90;;;;;;5079962;28;20141;-75
2022/10/25 09:26:57;;;;;;;9.73;4.05;;;15.20;99.90;;;;;;5079386;28;20028;-75
2022/10/25 09:29:39;;;;;;;5.95;3.42;;;15.20;99.90;;;;;;5079260;28;20078;-75
2022/10/25 09:32:44;;;;;;;11.38;4.07;;;15.30;99.90;;;;;;5079256;28;20024;-75
2022/10/25 09:35:31;;;;;;;8.35;3.42;;;15.30;99.90;;;;;;5079431;28;20035;-75
2022/10/25 09:38:17;;;;;;;10.60;3.97;;;15.30;99.90;;;;;;5061533;28;20035;-75
2022/10/25 09:40:45;;;;;;;;;;;15.20;99.90;;;;;;5079764;28;20016;-74
2022/10/25 09:43:18;;;;;;;10.38;4.45;;;15.20;99.90;;;;;;5079351;28;20204;-74
2022/10/25 09:45:57;;;;;;;12.95;5.25;;;15.20;99.90;;;;;;5061175;28;20029;-74
2022/10/25 09:48:29;;;;;;;13.23;3.85;;;15.20;99.90;;;;;;5079005;28;20024;-75
2022/10/25 09:51:15;;;;;;;8.73;3.85;;;15.20;99.90;;;;;;5078868;28;20025;-73
2022/10/25 09:53:45;;;;;;;13.90;4.05;;;15.10;99.90;;;;;;5078614;28;20063;-75
2022/10/25 09:56:12;;;;;;;13.15;4.47;;;15.00;99.90;;;;;;5078784;28;20027;-74
2022/10/25 09:58:43;;;;;;;10.30;5.07;;;15.00;99.90;;;;;;5078824;28;20017;-74
2022/10/25 10:01:25;;;;;;;8.90;3.97;;;15.00;99.90;;;;;;5078618;28;20024;-74
2022/10/25 10:03:55;;;;;;;6.50;3.70;;;15.10;99.90;;;;;;5060940;28;20487;-88
2022/10/25 10:06:38;;;;;;;10.18;3.60;;;15.10;99.90;;;;;;5079135;28;20029;-74
2022/10/25 10:09:13;;;;;;;10.65;4.10;;;15.20;99.90;;;;;;5078438;28;20051;-73
2022/10/25 10:11:41;;;;;;;5.47;2.78;;;15.30;99.90;;;;;;5078492;28;20089;-73
2022/10/25 10:14:29;;;;;;;9.57;3.85;;;15.40;99.90;;;;;;5078354;28;20016;-73
2022/10/25 10:16:58;;;;;;;7.22;3.13;;;15.50;99.90;;;;;;5078509;28;20046;-75
2022/10/25 10:19:31;;;;;;;10.15;3.97;;;15.50;99.90;;;;;;5078280;28;20044;-77
2022/10/25 10:22:01;;;;;;;11.65;3.78;;;15.50;99.90;;;;;;5078311;28;20017;-78
2022/10/25 10:24:36;;;;;;;12.30;3.47;;;15.50;99.90;;;;;;5078490;28;20024;-77
2022/10/25 10:27:09;;;;;;;17.33;4.30;;;15.50;99.90;;;;;;5078256;28;20069;-76
2022/10/25 10:29:52;;;;;;;12.93;2.88;;;15.60;99.90;;;;;;5078019;28;20035;-74
2022/10/25 10:32:35;;;;;;;8.52;3.40;;;15.70;99.90;;;;;;5078316;28;20024;-77
2022/10/25 10:35:24;;;;;;;10.20;3.05;;;15.90;99.90;;;;;;5060265;28;20023;-75
2022/10/25 10:37:51;;;;;;;9.00;2.70;;;16.00;99.90;;;;;;5077899;28;20434;-75
2022/10/25 10:40:19;;;;;;;8.23;2.97;;;16.10;99.90;;;;;;5078088;28;20032;-73
2022/10/25 10:42:47;;;;;;;5.00;2.00;;;16.00;99.90;;;;;;5078290;28;20115;-73
2022/10/25 10:45:19;;;;;;;6.55;2.15;;;16.00;99.90;;;;;;5077842;28;20416;-72
2022/10/25 10:47:52;;;;;;;12.25;3.35;;;15.90;99.90;;;;;;5077989;28;20400;-74
2022/10/25 10:50:26;;;;;;;8.27;2.05;;;15.90;99.90;;;;;;5060145;28;20321;-74
2022/10/25 10:53:02;;;;;;;9.52;2.85;;;15.70;99.90;;;;;;5078064;28;20025;-75
2022/10/25 10:55:29;;;;;;;;;;;15.70;99.90;;;;;;5077799;28;20478;-73
2022/10/25 10:58:24;;;;;;;11.65;3.35;;;15.60;99.90;;;;;;5077875;28;19909;-75
2022/10/25 11:01:14;;;;;;;7.88;2.22;;;15.60;99.90;;;;;;5069584;28;20106;-75
2022/10/25 11:03:42;;;;;;;8.23;2.20;;;15.70;99.90;;;;;;5077751;28;20137;-74
2022/10/25 11:06:27;;;;;;;9.38;3.30;;;15.80;99.90;;;;;;5059664;28;20107;-72
2022/10/25 11:09:15;;;;;;;10.63;2.72;;;15.90;99.90;;;;;;5077841;28;20028;-73
2022/10/25 11:11:44;;;;;;;13.68;3.53;;;15.90;99.90;;;;;;5078383;28;20016;-72
2022/10/25 11:14:19;;;;;;;10.40;2.95;;;16.00;99.90;;;;;;5077147;28;20021;-73
2022/10/25 11:17:26;;;;;;;10.65;2.53;;;16.00;99.90;;;;;;5077163;28;20055;-72
2022/10/25 11:20:13;;;;;;;11.38;3.13;;;16.10;99.90;;;;;;5077041;28;20025;-72
2022/10/25 11:23:08;;;;;;;7.68;2.40;;;16.20;99.90;;;;;;5076042;28;20020;-72
2022/10/25 11:25:38;;;;;;;9.65;3.30;;;16.10;99.90;;;;;;5077601;28;20031;-72
2022/10/25 11:28:34;;;;;;;13.60;2.92;;;16.10;99.90;;;;;;5076979;28;20078;-72
2022/10/25 11:31:13;;;;;;;7.28;2.92;;;16.10;99.90;;;;;;5059286;28;20098;-72
2022/10/25 11:34:20;;;;;;;9.45;3.33;;;16.10;99.90;;;;;;5059352;28;20025;-75
2022/10/25 11:37:19;;;;;;;7.18;2.50;;;16.00;99.90;;;;;;5076866;28;20024;-74
2022/10/25 11:40:15;;;;;;;7.30;3.10;;;15.90;99.90;;;;;;5076810;28;20370;-74
2022/10/25 11:43:05;;;;;;;10.47;2.87;;;15.90;99.90;;;;;;5077255;28;20420;-74
2022/10/25 11:45:42;;;;;;;10.75;3.25;;;15.80;99.90;;;;;;5076679;28;20017;-75
2022/10/25 11:48:36;;;;;;;9.93;2.30;;;15.80;99.90;;;;;;5076910;28;20024;-74
2022/10/25 11:51:32;;;;;;;8.05;3.10;;;15.80;99.90;;;;;;5076977;28;20021;-71
2022/10/25 11:54:12;;;;;;;11.80;3.45;;;15.80;99.90;;;;;;5057426;28;20052;-72
2022/10/25 11:56:58;;;;;;;5.93;3.28;;;15.90;99.90;;;;;;5077206;28;20316;-72
2022/10/25 11:59:50;;;;;;;14.45;2.58;;;16.00;99.90;;;;;;5076758;28;20202;-72
2022/10/25 12:02:30;;;;;;;10.15;2.10;;;16.10;99.90;;;;;;5059050;28;20104;-73
2022/10/25 12:05:25;;;;;;;5.95;2.80;;;16.20;99.90;;;;;;5076821;28;20016;-73
2022/10/25 12:08:21;;;;;;;8.32;3.90;;;16.30;99.90;;;;;;5076766;28;20025;-73
2022/10/25 12:10:54;;;;;;;7.50;1.88;;;16.40;99.90;;;;;;5076756;28;20028;-73
2022/10/25 12:13:34;;;;;;;5.13;2.13;;;16.40;99.90;;;;;;5075560;28;20056;-72
2022/10/25 12:16:09;;;;;;;7.03;2.75;;;16.40;99.90;;;;;;5076732;28;20021;-72
2022/10/25 12:18:44;;;;;;;4.78;2.22;;;16.40;99.90;;;;;;5077902;28;20308;-74
2022/10/25 12:21:29;;;;;;;8.52;3.00;;;16.30;99.90;;;;;;5076932;28;20514;-72
2022/10/25 12:23:57;;;;;;;13.95;2.65;;;16.20;99.90;;;;;;5076490;28;20056;-72
2022/10/25 12:26:39;;;;;;;9.18;3.13;;;16.30;99.90;;;;;;5076309;28;20371;-72
2022/10/25 12:29:15;;;;;;;6.15;2.08;;;16.30;99.90;;;;;;5076364;28;20027;-72
2022/10/25 12:31:55;;;;;;;9.02;2.58;;;16.30;99.90;;;;;;5077021;28;20017;-72
2022/10/25 12:34:48;;;;;;;6.07;2.60;;;16.20;99.90;;;;;;5080339;28;20059;-72
2022/10/25 12:37:41;;;;;;;10.13;4.05;;;16.20;99.90;;;;;;5080727;28;20070;-72
2022/10/25 12:40:16;;;;;;;7.40;2.47;;;16.20;99.90;;;;;;5080214;28;20078;-74
2022/10/25 12:43:09;;;;;;;8.10;2.95;;;16.20;99.90;;;;;;5080594;28;20021;-71
2022/10/25 12:45:46;;;;;;;7.20;2.75;;;16.10;99.90;;;;;;5080326;28;20024;-71
2022/10/25 12:48:32;;;;;;;9.27;2.92;;;16.00;99.90;;;;;;5080621;28;20025;-73
2022/10/25 12:51:17;;;;;;;7.60;3.08;;;15.90;99.90;;;;;;5062208;28;20108;-73
2022/10/25 12:54:04;;;;;;;10.88;3.10;;;15.70;99.90;;;;;;5080163;28;20082;-73
2022/10/25 12:57:06;;;;;;;4.35;2.05;;;15.50;99.90;;;;;;5079925;28;20020;-73
2022/10/25 12:59:53;;;;;;;5.90;2.05;;;15.30;99.90;;;;;;5079745;28;20426;-75
2022/10/25 13:02:40;;;;;;;11.32;2.88;;;15.10;99.90;;;;;;5079780;28;20024;-73
2022/10/25 13:05:26;;;;;;;19.88;3.05;;;15.10;99.90;;;;;;5061951;28;20418;-73
2022/10/25 13:08:02;;;;;;;5.45;2.15;;;15.00;99.90;;;;;;5079937;28;20099;-73
2022/10/25 13:10:39;;;;;;;10.95;2.63;;;14.90;99.90;;;;;;5061841;28;20321;-73
2022/10/25 13:13:27;;;;;;;7.97;2.45;;;14.90;99.90;;;;;;5079754;28;20328;-73
2022/10/25 13:16:04;;;;;;;9.13;2.70;;;15.00;99.90;;;;;;5061787;28;20024;-73
2022/10/25 13:18:41;;;;;;;12.30;2.72;;;15.10;99.90;;;;;;5079524;28;20024;-73
2022/10/25 13:21:37;;;;;;;6.60;2.45;;;15.40;99.90;;;;;;5061672;28;20348;-73
2022/10/25 13:24:09;;;;;;;8.50;2.70;;;15.60;99.90;;;;;;5061459;28;20024;-73